Elsa — WDB7862 — position and weather

sailwx.info

Track history (hours):
 
Tides and Currents Weather Stations Pressure Air Temp Water Temp Dewpoint Dewpoint Depression Visibility Wind Speed Wind Dir Waves Ship Positions

Elsa

Owner: GP RESOURCES INC., TERMINAL ISLAND, CA. More information available from US FCC via Universal Licensing System and Coast Guard Vessel Documentation Center.

Last reported at 2017-Jun-25 15:15 UTC. Time now 2017-Jun-26 17:20 UTC.
Position N 33°44' W 118°16'.

Length 18 m.

Type: Tug. MMSI: 366949020.

Date/timePositionNaut miles runAvg speedWind from/ knotsBaromVisibWave heightAir tempDewpointWater temp
2017-Jun-25 15:15N 33°44' W 118°16'1 5.8
2017-Jun-25 15:00N 33°43' W 118°15'3 6.1
2017-Jun-25 14:30N 33°44' W 118°12'2 0.2
2017-Jun-25 04:17N 33°44' W 118°10'0 0.0
2017-Jun-25 04:00N 33°44' W 118°10'0 0.0
2017-Jun-25 00:36N 33°44' W 118°10'0 0.0
2017-Jun-25 00:23N 33°44' W 118°10'0 0.2
2017-Jun-24 22:34N 33°44' W 118°10'1 5.1
2017-Jun-24 22:23N 33°44' W 118°11'3 5.2
2017-Jun-24 21:53N 33°43' W 118°14'1 3.9
2017-Jun-24 21:30N 33°44' W 118°16'0 0.0
2017-Jun-23 21:32N 33°44' W 118°16'1 4.2
2017-Jun-23 21:15N 33°43' W 118°15'1 3.4
2017-Jun-23 20:58N 33°43' W 118°14'2 3.5
2017-Jun-23 20:27N 33°44' W 118°13'0 0.1
2017-Jun-23 20:00N 33°44' W 118°13'0 0.0
2017-Jun-23 19:30N 33°44' W 118°13'0 0.0
2017-Jun-23 18:40N 33°44' W 118°13'0 0.1
2017-Jun-23 18:30N 33°44' W 118°13'0 0.1
2017-Jun-23 17:59N 33°44' W 118°13'1 1.0
2017-Jun-23 17:27N 33°44' W 118°13'1 3.1
2017-Jun-23 17:00N 33°43' W 118°14'2 3.2
2017-Jun-23 16:26N 33°44' W 118°16'0 0.0
2017-Jun-23 15:41N 33°44' W 118°16'0 0.0
2017-Jun-23 15:30N 33°44' W 118°16'0 0.0
2017-Jun-23 14:49N 33°44' W 118°16'0 0.0
2017-Jun-23 14:24N 33°44' W 118°16'0 0.0
2017-Jun-23 13:05N 33°44' W 118°16'0 0.0
2017-Jun-23 12:59N 33°44' W 118°16'0 0.0
2017-Jun-22 22:29N 33°44' W 118°16'0 0.0
2017-Jun-22 21:57N 33°44' W 118°16'0 0.0
2017-Jun-22 21:25N 33°44' W 118°16'  
2017-Jun-16 02:04N 33°44' W 118°16'1 6.9
2017-Jun-16 01:58N 33°44' W 118°16'3 5.8
2017-Jun-16 01:28N 33°45' W 118°13'1 2.2
2017-Jun-16 00:58N 33°46' W 118°13'3 7.0
2017-Jun-16 00:30N 33°43' W 118°14'  
Track history (hours):
 
Tides and Currents Weather Stations Pressure Air Temp Water Temp Dewpoint Dewpoint Depression Visibility Wind Speed Wind Dir Waves Ship Positions

Elsa

Owner: GP RESOURCES INC., TERMINAL ISLAND, CA. More information available from US FCC via Universal Licensing System and Coast Guard Vessel Documentation Center.

Last reported at 2017-Jun-25 15:15 UTC. Time now 2017-Jun-26 17:20 UTC.
Position N 33°44' W 118°16'.

Length 18 m.

Type: Tug. MMSI: 366949020.

Date/timePositionNaut miles runAvg speedWind from/ knotsBaromVisibWave heightAir tempDewpointWater temp
2017-Jun-25 15:15N 33°44' W 118°16'1 5.8
2017-Jun-25 15:00N 33°43' W 118°15'3 6.1
2017-Jun-25 14:30N 33°44' W 118°12'2 0.2
2017-Jun-25 04:17N 33°44' W 118°10'0 0.0
2017-Jun-25 04:00N 33°44' W 118°10'0 0.0
2017-Jun-25 00:36N 33°44' W 118°10'0 0.0
2017-Jun-25 00:23N 33°44' W 118°10'0 0.2
2017-Jun-24 22:34N 33°44' W 118°10'1 5.1
2017-Jun-24 22:23N 33°44' W 118°11'3 5.2
2017-Jun-24 21:53N 33°43' W 118°14'1 3.9
2017-Jun-24 21:30N 33°44' W 118°16'0 0.0
2017-Jun-23 21:32N 33°44' W 118°16'1 4.2
2017-Jun-23 21:15N 33°43' W 118°15'1 3.4
2017-Jun-23 20:58N 33°43' W 118°14'2 3.5
2017-Jun-23 20:27N 33°44' W 118°13'0 0.1
2017-Jun-23 20:00N 33°44' W 118°13'0 0.0
2017-Jun-23 19:30N 33°44' W 118°13'0 0.0
2017-Jun-23 18:40N 33°44' W 118°13'0 0.1
2017-Jun-23 18:30N 33°44' W 118°13'0 0.1
2017-Jun-23 17:59N 33°44' W 118°13'1 1.0
2017-Jun-23 17:27N 33°44' W 118°13'1 3.1
2017-Jun-23 17:00N 33°43' W 118°14'2 3.2
2017-Jun-23 16:26N 33°44' W 118°16'0 0.0
2017-Jun-23 15:41N 33°44' W 118°16'0 0.0
2017-Jun-23 15:30N 33°44' W 118°16'0 0.0
2017-Jun-23 14:49N 33°44' W 118°16'0 0.0
2017-Jun-23 14:24N 33°44' W 118°16'0 0.0
2017-Jun-23 13:05N 33°44' W 118°16'0 0.0
2017-Jun-23 12:59N 33°44' W 118°16'0 0.0
2017-Jun-22 22:29N 33°44' W 118°16'0 0.0
2017-Jun-22 21:57N 33°44' W 118°16'0 0.0
2017-Jun-22 21:25N 33°44' W 118°16'  
2017-Jun-16 02:04N 33°44' W 118°16'1 6.9
2017-Jun-16 01:58N 33°44' W 118°16'3 5.8
2017-Jun-16 01:28N 33°45' W 118°13'1 2.2
2017-Jun-16 00:58N 33°46' W 118°13'3 7.0
2017-Jun-16 00:30N 33°43' W 118°14'  

Dump ship's entire track history